createdAt,value
2023-04-20T00:01:00.586Z,99.90
2023-04-20T00:03:27.504Z,99.90
2023-04-20T00:05:54.542Z,99.90
2023-04-20T00:08:21.507Z,99.90
2023-04-20T00:10:49.786Z,99.90
2023-04-20T00:13:16.621Z,99.90
2023-04-20T00:15:43.633Z,99.90
2023-04-20T00:18:10.575Z,99.90
2023-04-20T00:20:37.689Z,99.90
2023-04-20T00:23:04.793Z,99.90
2023-04-20T00:25:31.620Z,99.90
2023-04-20T00:28:00.521Z,99.90
2023-04-20T00:30:27.801Z,99.90
2023-04-20T00:32:55.053Z,99.90
2023-04-20T00:35:21.976Z,99.90
2023-04-20T00:37:48.788Z,99.90
2023-04-20T00:40:15.717Z,99.90
2023-04-20T00:42:42.578Z,99.90
2023-04-20T00:45:11.231Z,99.90
2023-04-20T00:47:38.433Z,99.90
2023-04-20T00:50:06.821Z,99.90
2023-04-20T00:52:34.297Z,99.90
2023-04-20T00:55:01.862Z,99.90
2023-04-20T00:57:29.006Z,99.90
2023-04-20T00:59:55.802Z,99.90
2023-04-20T01:02:24.423Z,99.90
2023-04-20T01:04:51.463Z,99.90
2023-04-20T01:07:18.434Z,99.90
2023-04-20T01:09:45.367Z,99.90
2023-04-20T01:12:12.361Z,99.90
2023-04-20T01:14:39.275Z,99.90
2023-04-20T01:17:06.181Z,99.90
2023-04-20T01:19:34.933Z,99.90
2023-04-20T01:22:01.854Z,99.90
2023-04-20T01:24:30.145Z,99.90
2023-04-20T01:26:56.958Z,99.90
2023-04-20T01:29:23.859Z,99.90
2023-04-20T01:31:50.717Z,99.90
2023-04-20T01:34:17.794Z,99.90
2023-04-20T01:36:44.658Z,99.90
2023-04-20T01:39:13.940Z,99.90
2023-04-20T01:41:42.144Z,99.90
2023-04-20T01:44:09.287Z,99.90
2023-04-20T01:46:38.072Z,99.90
2023-04-20T01:49:05.427Z,99.90
2023-04-20T01:51:32.302Z,99.90
2023-04-20T01:53:59.417Z,99.90
2023-04-20T01:56:26.308Z,99.90
2023-04-20T01:58:54.796Z,99.90
2023-04-20T02:01:21.878Z,99.90
2023-04-20T02:03:49.485Z,99.90
2023-04-20T02:06:16.633Z,99.90
2023-04-20T02:08:43.546Z,99.90
2023-04-20T02:11:10.372Z,99.90
2023-04-20T02:13:37.362Z,99.90
2023-04-20T02:16:06.428Z,99.90
2023-04-20T02:18:33.353Z,99.90
2023-04-20T02:21:01.023Z,99.90
2023-04-20T02:23:27.969Z,99.90
2023-04-20T02:25:54.949Z,99.90
2023-04-20T02:28:21.726Z,99.90
2023-04-20T02:30:48.582Z,99.90
2023-04-20T02:33:16.989Z,99.90
2023-04-20T02:35:43.938Z,99.90
2023-04-20T02:38:10.801Z,99.90
2023-04-20T02:40:37.591Z,99.90
2023-04-20T02:43:04.676Z,99.90
2023-04-20T02:45:32.002Z,99.90
2023-04-20T02:47:58.838Z,99.90
2023-04-20T02:50:27.233Z,99.90
2023-04-20T02:52:54.120Z,99.90
2023-04-20T02:55:21.011Z,99.90
2023-04-20T02:57:47.971Z,99.90
2023-04-20T03:00:15.451Z,99.90
2023-04-20T03:02:42.374Z,99.90
2023-04-20T03:05:09.645Z,99.90
2023-04-20T03:07:38.182Z,99.90
2023-04-20T03:10:06.144Z,99.90
2023-04-20T03:12:33.078Z,99.90
2023-04-20T03:14:59.864Z,99.90
2023-04-20T03:17:26.796Z,99.90
2023-04-20T03:19:53.737Z,99.90
2023-04-20T03:22:20.562Z,99.90
2023-04-20T03:24:49.527Z,99.90
2023-04-20T03:27:17.593Z,99.90
2023-04-20T03:29:44.572Z,99.90
2023-04-20T03:32:11.504Z,99.90
2023-04-20T03:34:38.535Z,99.90
2023-04-20T03:37:05.343Z,99.90
2023-04-20T03:39:32.252Z,99.90
2023-04-20T03:42:00.665Z,99.90
2023-04-20T03:44:27.497Z,99.90
2023-04-20T03:46:54.479Z,99.90
2023-04-20T03:49:24.620Z,99.90
2023-04-20T03:51:51.424Z,99.90
2023-04-20T03:54:18.367Z,99.90
2023-04-20T03:56:45.322Z,99.90
2023-04-20T03:59:13.859Z,99.90
2023-04-20T04:01:40.835Z,99.90
2023-04-20T04:04:08.453Z,99.90
2023-04-20T04:06:35.785Z,99.90
2023-04-20T04:09:02.754Z,99.90
2023-04-20T04:11:30.491Z,99.90
2023-04-20T04:13:59.235Z,99.90
2023-04-20T04:16:27.885Z,99.90
2023-04-20T04:18:55.139Z,99.90
2023-04-20T04:21:22.224Z,99.90
2023-04-20T04:23:49.693Z,99.90
2023-04-20T04:26:17.033Z,99.90
2023-04-20T04:28:46.326Z,99.90
2023-04-20T04:31:13.330Z,99.90
2023-04-20T04:33:42.328Z,99.90
2023-04-20T04:36:10.267Z,99.90
2023-04-20T04:38:37.471Z,99.90
2023-04-20T04:41:04.877Z,99.90
2023-04-20T04:43:32.060Z,99.90
2023-04-20T04:45:59.554Z,99.90
2023-04-20T04:48:26.361Z,99.90
2023-04-20T04:50:54.436Z,99.90
2023-04-20T04:53:21.495Z,99.90
2023-04-20T04:55:53.888Z,99.90
2023-04-20T04:58:21.245Z,99.90
2023-04-20T05:00:51.566Z,99.90
2023-04-20T05:03:18.748Z,99.90
2023-04-20T05:05:46.274Z,99.90
2023-04-20T05:08:14.852Z,99.90
2023-04-20T05:10:43.151Z,99.90
2023-04-20T05:13:10.890Z,99.90
2023-04-20T05:15:38.956Z,99.90
2023-04-20T05:18:06.283Z,99.90
2023-04-20T05:20:33.252Z,99.90
2023-04-20T05:23:00.289Z,99.90
2023-04-20T05:25:28.431Z,99.90
2023-04-20T05:27:55.186Z,99.90
2023-04-20T05:30:22.421Z,99.90
2023-04-20T05:32:51.916Z,99.90
2023-04-20T05:35:19.665Z,99.90
2023-04-20T05:37:46.652Z,99.90
2023-04-20T05:40:13.638Z,99.90
2023-04-20T05:42:41.888Z,99.90
2023-04-20T05:45:10.300Z,99.90
2023-04-20T05:47:37.205Z,99.90
2023-04-20T05:50:04.671Z,99.90
2023-04-20T05:52:31.573Z,99.90
2023-04-20T05:54:58.402Z,99.90
2023-04-20T05:57:25.238Z,99.90
2023-04-20T05:59:53.841Z,99.90
2023-04-20T06:02:20.668Z,99.90
2023-04-20T06:04:47.981Z,99.90
2023-04-20T06:07:14.892Z,99.90
2023-04-20T06:09:41.620Z,99.90
2023-04-20T06:12:08.422Z,99.90
2023-04-20T06:14:35.176Z,99.90
2023-04-20T06:17:03.292Z,99.90
2023-04-20T06:19:30.060Z,99.90
2023-04-20T06:22:00.203Z,99.90
2023-04-20T06:24:27.692Z,99.90
2023-04-20T06:26:54.589Z,99.90
2023-04-20T06:29:21.359Z,99.90
2023-04-20T06:31:48.149Z,99.90
2023-04-20T06:34:16.305Z,99.90
2023-04-20T06:36:43.273Z,99.90
2023-04-20T06:39:10.056Z,99.90
2023-04-20T06:41:37.378Z,99.90
2023-04-20T06:44:04.240Z,99.90
2023-04-20T06:46:31.204Z,99.90
2023-04-20T06:48:58.015Z,99.90
2023-04-20T06:51:26.137Z,99.90
2023-04-20T06:53:52.985Z,99.90
2023-04-20T06:56:19.764Z,99.90
2023-04-20T06:58:46.593Z,99.90
2023-04-20T07:01:13.452Z,99.90
2023-04-20T07:03:40.404Z,99.90
2023-04-20T07:06:07.446Z,99.90
2023-04-20T07:08:35.745Z,99.90
2023-04-20T07:11:02.532Z,99.90
2023-04-20T07:13:33.950Z,99.90
2023-04-20T07:16:01.030Z,99.90
2023-04-20T07:18:27.850Z,99.90
2023-04-20T07:20:54.824Z,99.90
2023-04-20T07:23:21.594Z,99.90
2023-04-20T07:25:49.751Z,99.90
2023-04-20T07:28:16.531Z,99.90
2023-04-20T07:30:43.385Z,99.90
2023-04-20T07:33:10.195Z,99.90
2023-04-20T07:35:37.454Z,99.90
2023-04-20T07:38:04.202Z,99.90
2023-04-20T07:40:30.968Z,99.90
2023-04-20T07:42:59.211Z,99.90
2023-04-20T07:45:26.154Z,99.90
2023-04-20T07:47:53.321Z,99.90
2023-04-20T07:50:20.204Z,99.90
2023-04-20T07:52:46.973Z,99.90
2023-04-20T07:55:13.872Z,99.90
2023-04-20T07:57:40.823Z,99.90
2023-04-20T08:00:10.431Z,99.90
2023-04-20T08:02:37.387Z,99.90
2023-04-20T08:05:05.059Z,99.90
2023-04-20T08:07:32.007Z,99.90
2023-04-20T08:09:58.978Z,99.90
2023-04-20T08:12:25.726Z,99.90
2023-04-20T08:14:52.553Z,99.90
2023-04-20T08:17:20.907Z,99.90
2023-04-20T08:19:47.760Z,99.90
2023-04-20T08:22:14.554Z,99.90
2023-04-20T08:24:41.326Z,99.90
2023-04-20T08:27:08.927Z,99.90
2023-04-20T08:29:35.869Z,99.90
2023-04-20T08:32:03.641Z,99.90
2023-04-20T08:34:31.850Z,99.90
2023-04-20T08:36:58.602Z,99.90
2023-04-20T08:39:25.496Z,99.90
2023-04-20T08:41:52.318Z,99.90
2023-04-20T08:44:19.275Z,99.90
2023-04-20T08:46:48.041Z,99.90
2023-04-20T08:49:16.325Z,99.90
2023-04-20T08:51:45.868Z,99.90
2023-04-20T08:54:13.181Z,99.90
2023-04-20T08:56:41.886Z,99.90
2023-04-20T08:59:08.839Z,99.90
2023-04-20T09:01:36.411Z,99.90
2023-04-20T09:04:14.799Z,99.90
2023-04-20T09:06:45.423Z,99.90
2023-04-20T09:09:12.296Z,99.90
2023-04-20T09:11:39.138Z,99.90
2023-04-20T09:14:07.293Z,99.90
2023-04-20T09:16:34.492Z,99.90
2023-04-20T09:19:01.392Z,99.90
2023-04-20T09:21:28.933Z,99.90
2023-04-20T09:23:59.356Z,99.90
2023-04-20T09:26:26.193Z,99.90
2023-04-20T09:28:53.049Z,99.90
2023-04-20T09:31:21.170Z,99.90
2023-04-20T09:33:56.761Z,99.90
2023-04-20T09:36:23.608Z,99.90
2023-04-20T09:39:03.022Z,99.90
2023-04-20T09:41:31.252Z,99.90
2023-04-20T09:43:58.916Z,99.90
2023-04-20T09:46:29.272Z,99.90
2023-04-20T09:48:56.850Z,99.90
2023-04-20T09:51:25.860Z,99.90
2023-04-20T09:53:53.407Z,99.90
2023-04-20T09:56:22.092Z,99.90
2023-04-20T09:58:49.742Z,99.90
2023-04-20T10:01:16.584Z,99.90
2023-04-20T10:03:44.050Z,99.90
2023-04-20T10:06:19.440Z,99.90
2023-04-20T10:08:46.258Z,99.90
2023-04-20T10:11:37.100Z,99.90
2023-04-20T10:14:16.514Z,99.90
2023-04-20T10:16:44.099Z,99.90
2023-04-20T10:19:11.181Z,99.70
2023-04-20T10:21:46.481Z,99.10
2023-04-20T10:24:13.626Z,98.70
2023-04-20T10:26:44.285Z,98.30
2023-04-20T10:29:11.648Z,98.00
2023-04-20T10:31:39.376Z,98.20
2023-04-20T10:34:07.695Z,98.00
2023-04-20T10:36:35.701Z,98.50
2023-04-20T10:39:14.948Z,98.90
2023-04-20T10:41:55.168Z,99.70
2023-04-20T10:44:22.057Z,99.90
2023-04-20T10:46:49.743Z,99.90
2023-04-20T10:49:17.324Z,99.90
2023-04-20T10:51:48.715Z,99.90
2023-04-20T10:54:17.688Z,99.90
2023-04-20T10:56:47.052Z,99.90
2023-04-20T10:59:16.918Z,99.80
2023-04-20T11:01:45.223Z,99.70
2023-04-20T11:04:12.718Z,99.90
2023-04-20T11:06:40.484Z,99.90
2023-04-20T11:09:17.393Z,99.30
2023-04-20T11:11:44.483Z,99.50
2023-04-20T11:14:12.609Z,99.30
2023-04-20T11:16:52.057Z,99.20
2023-04-20T11:19:26.884Z,99.20
2023-04-20T11:21:53.931Z,98.80
2023-04-20T11:24:22.046Z,98.60
2023-04-20T11:26:49.545Z,98.80
2023-04-20T11:29:31.113Z,98.60
2023-04-20T11:32:00.614Z,98.50
2023-04-20T11:34:27.774Z,98.80
2023-04-20T11:36:54.923Z,98.20
2023-04-20T11:39:23.708Z,97.60
2023-04-20T11:41:50.874Z,97.50
2023-04-20T11:44:17.979Z,97.60
2023-04-20T11:46:45.544Z,97.00
2023-04-20T11:49:14.028Z,97.10
2023-04-20T11:51:41.022Z,97.50
2023-04-20T11:54:08.004Z,97.90
2023-04-20T11:56:35.113Z,98.10
2023-04-20T11:59:01.980Z,97.40
2023-04-20T12:01:28.831Z,96.10
2023-04-20T12:03:55.847Z,95.50
2023-04-20T12:06:24.146Z,92.80
2023-04-20T12:08:50.974Z,92.40
2023-04-20T12:11:17.909Z,92.20
2023-04-20T12:13:44.729Z,91.60
2023-04-20T12:16:11.522Z,91.90
2023-04-20T12:18:38.382Z,92.00
2023-04-20T12:21:05.552Z,91.90
2023-04-20T12:23:34.039Z,91.90
2023-04-20T12:26:00.909Z,91.80
2023-04-20T12:28:27.685Z,91.10
2023-04-20T12:30:54.542Z,90.80
2023-04-20T12:33:21.408Z,90.40
2023-04-20T12:35:48.269Z,90.60
2023-04-20T12:38:15.060Z,91.00
2023-04-20T12:40:43.242Z,91.50
2023-04-20T12:43:10.129Z,91.60
2023-04-20T12:45:36.924Z,91.70
2023-04-20T12:48:04.381Z,90.70
2023-04-20T12:50:31.444Z,90.30
2023-04-20T12:52:58.459Z,90.20
2023-04-20T12:55:26.306Z,90.60
2023-04-20T12:57:54.658Z,91.00
2023-04-20T13:00:21.637Z,91.40
2023-04-20T13:02:48.709Z,91.80
2023-04-20T13:05:15.822Z,92.40
2023-04-20T13:07:42.635Z,92.80
2023-04-20T13:10:09.921Z,93.00
2023-04-20T13:12:36.784Z,93.30
2023-04-20T13:15:06.782Z,93.70
2023-04-20T13:17:33.694Z,93.70
2023-04-20T13:20:00.542Z,93.40
2023-04-20T13:22:27.708Z,93.20
2023-04-20T13:24:54.504Z,92.60
2023-04-20T13:27:21.315Z,92.30
2023-04-20T13:29:48.092Z,92.10
2023-04-20T13:32:16.248Z,92.00
2023-04-20T13:34:43.085Z,92.10
2023-04-20T13:37:09.878Z,92.00
2023-04-20T13:39:36.730Z,91.80
2023-04-20T13:42:03.726Z,91.60
2023-04-20T13:44:30.570Z,91.50
2023-04-20T13:46:57.947Z,91.60
2023-04-20T13:49:26.170Z,92.00
2023-04-20T13:51:53.478Z,92.00
2023-04-20T13:54:20.408Z,92.10
2023-04-20T13:56:47.297Z,92.40
2023-04-20T13:59:14.127Z,92.60
2023-04-20T14:01:41.116Z,92.70
2023-04-20T14:04:09.336Z,93.10
2023-04-20T14:06:42.039Z,93.40
2023-04-20T14:09:08.854Z,93.80
2023-04-20T14:11:35.784Z,94.10
2023-04-20T14:14:02.679Z,94.50
2023-04-20T14:16:29.643Z,94.70
2023-04-20T14:18:56.632Z,95.00
2023-04-20T14:21:23.598Z,95.10
2023-04-20T14:23:51.880Z,95.40
2023-04-20T14:26:18.884Z,95.80
2023-04-20T14:28:45.682Z,96.00
2023-04-20T14:31:12.528Z,96.20
2023-04-20T14:33:39.474Z,96.50
2023-04-20T14:36:06.767Z,96.70
2023-04-20T14:38:33.581Z,96.90
2023-04-20T14:41:01.925Z,97.20
2023-04-20T14:43:28.915Z,97.30
2023-04-20T14:45:55.805Z,97.40
2023-04-20T14:48:24.351Z,97.40
2023-04-20T14:50:51.388Z,97.30
2023-04-20T14:53:18.180Z,97.30
2023-04-20T14:55:44.965Z,97.40
2023-04-20T14:58:16.399Z,97.50
2023-04-20T15:00:43.206Z,97.40
2023-04-20T15:03:10.168Z,97.30
2023-04-20T15:05:37.234Z,97.30
2023-04-20T15:08:04.536Z,97.30
2023-04-20T15:10:31.403Z,97.30
2023-04-20T15:12:58.152Z,97.40
2023-04-20T15:15:34.566Z,97.30
2023-04-20T15:18:08.396Z,97.10
2023-04-20T15:20:35.204Z,96.50
2023-04-20T15:23:01.998Z,96.10
2023-04-20T15:25:28.796Z,95.70
2023-04-20T15:27:55.829Z,94.80
2023-04-20T15:30:22.612Z,94.60
2023-04-20T15:32:50.887Z,94.60
2023-04-20T15:35:17.798Z,94.80
2023-04-20T15:37:45.580Z,95.30
2023-04-20T15:40:12.788Z,95.70
2023-04-20T15:42:39.593Z,96.20
2023-04-20T15:45:08.085Z,96.40
2023-04-20T15:47:35.098Z,96.50
2023-04-20T15:50:03.469Z,96.40
2023-04-20T15:52:31.283Z,96.40
2023-04-20T15:54:58.147Z,96.10
2023-04-20T15:57:24.974Z,95.90
2023-04-20T15:59:51.752Z,95.70
2023-04-20T16:02:18.702Z,96.10
2023-04-20T16:04:45.759Z,96.40
2023-04-20T16:07:14.711Z,96.70
2023-04-20T16:09:41.609Z,97.00
2023-04-20T16:12:08.375Z,97.10
2023-04-20T16:14:35.261Z,97.20
2023-04-20T16:17:02.432Z,97.30
2023-04-20T16:19:30.706Z,97.30
2023-04-20T16:21:58.427Z,97.10
2023-04-20T16:24:26.706Z,97.00
2023-04-20T16:26:53.524Z,97.00
2023-04-20T16:29:20.306Z,97.20
2023-04-20T16:31:47.172Z,97.30
2023-04-20T16:34:13.980Z,97.50
2023-04-20T16:36:40.855Z,98.00
2023-04-20T16:39:07.616Z,98.20
2023-04-20T16:41:35.892Z,99.40
2023-04-20T16:44:02.735Z,99.90
2023-04-20T16:46:29.635Z,99.90
2023-04-20T16:48:56.541Z,99.90
2023-04-20T16:51:23.305Z,99.90
2023-04-20T16:53:52.032Z,99.90
2023-04-20T16:59:06.811Z,99.90
2023-04-20T17:01:33.715Z,99.90
2023-04-20T17:04:00.713Z,99.90
2023-04-20T17:06:27.848Z,99.90
2023-04-20T17:08:54.679Z,99.90
2023-04-20T17:11:21.515Z,99.90
2023-04-20T17:13:48.282Z,99.90
2023-04-20T17:16:16.574Z,99.90
2023-04-20T17:18:43.419Z,99.90
2023-04-20T17:21:10.296Z,99.90
2023-04-20T17:23:37.047Z,99.90
2023-04-20T17:26:03.889Z,99.90
2023-04-20T17:28:30.696Z,99.90
2023-04-20T17:30:57.526Z,99.90
2023-04-20T17:33:25.695Z,99.90
2023-04-20T17:35:52.485Z,99.90
2023-04-20T17:38:19.230Z,99.90
2023-04-20T17:40:46.045Z,99.90
2023-04-20T17:43:12.878Z,99.90
2023-04-20T17:45:39.697Z,99.90
2023-04-20T17:48:07.012Z,99.90
2023-04-20T17:50:35.290Z,99.90
2023-04-20T17:53:02.133Z,99.90
2023-04-20T17:55:28.879Z,99.90
2023-04-20T17:57:55.705Z,99.90
2023-04-20T18:00:22.516Z,99.90
2023-04-20T18:02:49.460Z,99.90
2023-04-20T18:05:16.364Z,99.90
2023-04-20T18:07:44.610Z,99.90
2023-04-20T18:10:11.558Z,99.90
2023-04-20T18:12:38.399Z,99.90
2023-04-20T18:15:08.342Z,99.90
2023-04-20T18:17:35.795Z,99.90
2023-04-20T18:20:02.704Z,99.90
2023-04-20T18:22:29.460Z,99.90
2023-04-20T18:24:57.588Z,99.90
2023-04-20T18:27:24.389Z,99.90
2023-04-20T18:29:51.114Z,99.90
2023-04-20T18:32:17.863Z,99.90
2023-04-20T18:34:44.736Z,99.90
2023-04-20T18:37:11.666Z,99.90
2023-04-20T18:39:38.559Z,99.90
2023-04-20T18:42:06.702Z,99.90
2023-04-20T18:44:33.539Z,99.90
2023-04-20T18:47:00.525Z,99.90
2023-04-20T18:49:27.387Z,99.90
2023-04-20T18:51:54.151Z,99.90
2023-04-20T18:54:21.113Z,99.90
2023-04-20T18:56:47.968Z,99.90
2023-04-20T18:59:16.099Z,99.90
2023-04-20T19:01:42.872Z,99.90
2023-04-20T19:04:09.882Z,99.90
2023-04-20T19:06:36.727Z,99.90
2023-04-20T19:09:04.481Z,99.90
2023-04-20T19:11:32.671Z,99.90
2023-04-20T19:13:59.455Z,99.90
2023-04-20T19:16:29.419Z,99.90
2023-04-20T19:18:56.170Z,99.90
2023-04-20T19:21:22.941Z,99.90
2023-04-20T19:23:49.741Z,99.90
2023-04-20T19:26:16.560Z,99.90
2023-04-20T19:28:43.595Z,99.90
2023-04-20T19:31:10.400Z,99.90
2023-04-20T19:33:38.949Z,99.90
2023-04-20T19:36:06.084Z,99.90
2023-04-20T19:38:34.224Z,99.90
2023-04-20T19:41:01.441Z,99.90
2023-04-20T19:43:28.430Z,99.90
2023-04-20T19:45:55.801Z,99.90
2023-04-20T19:48:22.627Z,99.90
2023-04-20T19:50:51.482Z,99.90
2023-04-20T19:53:18.385Z,99.90
2023-04-20T19:55:45.180Z,99.90
2023-04-20T19:58:11.980Z,99.90
2023-04-20T20:00:38.832Z,99.90
2023-04-20T20:03:06.137Z,99.90
2023-04-20T20:05:33.059Z,99.90
2023-04-20T20:08:01.506Z,99.90
2023-04-20T20:10:28.355Z,99.90
2023-04-20T20:12:55.101Z,99.90
2023-04-20T20:15:21.873Z,99.90
2023-04-20T20:17:48.646Z,99.90
2023-04-20T20:20:15.480Z,99.90
2023-04-20T20:22:42.335Z,99.90
2023-04-20T20:25:10.500Z,99.90
2023-04-20T20:27:37.236Z,99.90
2023-04-20T20:30:04.929Z,99.90
2023-04-20T20:32:31.839Z,99.90
2023-04-20T20:34:58.565Z,99.90
2023-04-20T20:37:25.316Z,99.90
2023-04-20T20:39:52.119Z,99.90
2023-04-20T20:42:20.328Z,99.90
2023-04-20T20:44:47.067Z,99.90
2023-04-20T20:47:13.806Z,99.90
2023-04-20T20:49:40.972Z,99.90
2023-04-20T20:52:07.756Z,99.90
2023-04-20T20:54:34.675Z,99.90
2023-04-20T20:57:01.456Z,99.90
2023-04-20T20:59:29.568Z,99.90
2023-04-20T21:01:56.464Z,99.90
2023-04-20T21:04:23.234Z,99.90
2023-04-20T21:06:50.069Z,99.90
2023-04-20T21:09:17.013Z,99.90
2023-04-20T21:11:44.004Z,99.90
2023-04-20T21:14:10.895Z,99.90
2023-04-20T21:16:39.080Z,99.90
2023-04-20T21:19:05.974Z,99.90
2023-04-20T21:21:33.571Z,99.90
2023-04-20T21:24:00.311Z,99.90
2023-04-20T21:26:27.137Z,99.90
2023-04-20T21:28:54.133Z,99.90
2023-04-20T21:31:21.221Z,99.90
2023-04-20T21:33:49.356Z,99.90
2023-04-20T21:36:16.764Z,99.90
2023-04-20T21:38:43.593Z,99.90
2023-04-20T21:41:10.390Z,99.90
2023-04-20T21:43:37.529Z,99.90
2023-04-20T21:46:04.509Z,99.90
2023-04-20T21:48:31.384Z,99.90
2023-04-20T21:50:59.473Z,99.90
2023-04-20T21:53:27.306Z,99.90
2023-04-20T21:55:54.060Z,99.90
2023-04-20T21:58:20.800Z,99.90
2023-04-20T22:00:47.639Z,99.90
2023-04-20T22:03:14.520Z,99.90
2023-04-20T22:05:41.437Z,99.90
2023-04-20T22:08:09.547Z,99.90
2023-04-20T22:10:36.350Z,99.90
2023-04-20T22:13:03.129Z,99.90
2023-04-20T22:15:29.937Z,99.90
2023-04-20T22:17:57.072Z,99.90
2023-04-20T22:20:23.844Z,99.90
2023-04-20T22:22:50.641Z,99.90
2023-04-20T22:25:19.084Z,99.90
2023-04-20T22:27:45.838Z,99.90
2023-04-20T22:30:13.319Z,99.90
2023-04-20T22:32:40.113Z,99.90
2023-04-20T22:35:07.437Z,99.90
2023-04-20T22:37:34.710Z,99.90
2023-04-20T22:40:01.538Z,99.90
2023-04-20T22:42:29.667Z,99.90
2023-04-20T22:44:56.374Z,99.90
2023-04-20T22:47:23.177Z,99.90
2023-04-20T22:49:49.917Z,99.90
2023-04-20T22:52:17.071Z,99.90
2023-04-20T22:54:43.993Z,99.90
2023-04-20T22:57:10.845Z,99.90
2023-04-20T22:59:39.087Z,99.90
2023-04-20T23:02:06.326Z,99.90
2023-04-20T23:04:33.262Z,99.90
2023-04-20T23:07:00.123Z,99.90
2023-04-20T23:09:26.960Z,99.90
2023-04-20T23:11:53.822Z,99.90
2023-04-20T23:14:20.782Z,99.90
2023-04-20T23:16:49.250Z,99.90
2023-04-20T23:19:16.154Z,99.90
2023-04-20T23:21:43.887Z,99.90
2023-04-20T23:24:10.794Z,99.90
2023-04-20T23:26:37.677Z,99.90
2023-04-20T23:29:04.620Z,99.90
2023-04-20T23:31:31.543Z,99.90
2023-04-20T23:33:59.845Z,99.90
2023-04-20T23:36:26.703Z,99.90
2023-04-20T23:38:53.523Z,99.90
2023-04-20T23:41:20.371Z,99.90
2023-04-20T23:43:47.166Z,99.90
2023-04-20T23:46:14.201Z,99.90
2023-04-20T23:48:41.171Z,99.90
2023-04-20T23:51:09.430Z,99.90
2023-04-20T23:53:36.537Z,99.90
2023-04-20T23:56:03.618Z,99.90
2023-04-20T23:58:30.467Z,99.90
